createdAt,value
2022-11-28T00:01:20.855Z,80.07
2022-11-28T00:03:47.950Z,80.04
2022-11-28T00:06:15.165Z,80.16
2022-11-28T00:08:41.912Z,79.77
2022-11-28T00:11:11.306Z,79.42
2022-11-28T00:13:38.843Z,80.26
2022-11-28T00:16:08.261Z,79.78
2022-11-28T00:18:35.496Z,79.76
2022-11-28T00:21:06.150Z,80.22
2022-11-28T00:23:33.519Z,80.97
2022-11-28T00:26:08.991Z,80.26
2022-11-28T00:28:35.815Z,80.19
2022-11-28T00:31:02.430Z,80.22
2022-11-28T00:33:29.365Z,80.67
2022-11-28T00:36:05.043Z,81.00
2022-11-28T00:38:32.041Z,80.77
2022-11-28T00:41:03.485Z,80.87
2022-11-28T00:43:30.133Z,81.43
2022-11-28T00:45:57.145Z,81.28
2022-11-28T00:48:24.881Z,80.88
2022-11-28T00:50:52.247Z,81.80
2022-11-28T00:53:19.107Z,81.72
2022-11-28T00:55:45.787Z,80.72
2022-11-28T00:58:12.364Z,81.21
2022-11-28T01:00:39.524Z,81.26
2022-11-28T01:03:06.525Z,81.26
2022-11-28T01:05:33.309Z,81.45
2022-11-28T01:07:59.936Z,81.81
2022-11-28T01:10:27.264Z,80.99
2022-11-28T01:12:53.967Z,81.07
2022-11-28T01:15:20.790Z,80.43
2022-11-28T01:17:47.441Z,80.40
2022-11-28T01:20:14.575Z,80.29
2022-11-28T01:22:41.162Z,80.47
2022-11-28T01:25:07.972Z,82.18
2022-11-28T01:27:34.575Z,80.84
2022-11-28T01:30:01.156Z,82.09
2022-11-28T01:32:27.751Z,82.54
2022-11-28T01:34:54.375Z,82.56
2022-11-28T01:37:20.964Z,82.84
2022-11-28T01:39:47.605Z,84.49
2022-11-28T01:42:18.774Z,85.04
2022-11-28T01:44:48.174Z,85.05
2022-11-28T01:47:27.955Z,84.68
2022-11-28T01:49:55.723Z,86.10
2022-11-28T01:52:23.632Z,86.95
2022-11-28T01:54:55.178Z,87.93
2022-11-28T01:57:25.137Z,87.29
2022-11-28T01:59:59.462Z,88.26
2022-11-28T02:02:46.291Z,89.44
2022-11-28T02:05:13.516Z,90.07
2022-11-28T02:07:43.460Z,90.74
2022-11-28T02:10:15.045Z,90.04
2022-11-28T02:13:03.738Z,90.57
2022-11-28T02:15:33.818Z,90.97
2022-11-28T02:18:12.252Z,91.67
2022-11-28T02:20:57.364Z,90.53
2022-11-28T02:23:51.398Z,91.07
2022-11-28T02:26:36.854Z,89.76
2022-11-28T02:29:31.985Z,90.20
2022-11-28T02:32:25.206Z,90.07
2022-11-28T02:35:10.197Z,90.32
2022-11-28T02:38:02.542Z,90.90
2022-11-28T02:40:39.927Z,90.57
2022-11-28T02:43:28.240Z,90.55
2022-11-28T02:46:52.110Z,90.55
2022-11-28T02:49:26.838Z,90.46
2022-11-28T02:51:58.746Z,90.67
2022-11-28T02:54:27.339Z,89.55
2022-11-28T02:56:55.200Z,89.41
2022-11-28T02:59:49.647Z,88.98
2022-11-28T03:02:24.137Z,88.02
2022-11-28T03:05:18.108Z,87.21
2022-11-28T03:07:53.366Z,87.54
2022-11-28T03:10:33.844Z,86.66
2022-11-28T03:13:13.918Z,86.31
2022-11-28T03:16:09.077Z,87.57
2022-11-28T03:18:42.207Z,86.86
2022-11-28T03:21:23.502Z,87.26
2022-11-28T03:24:01.312Z,88.05
2022-11-28T03:26:41.646Z,88.45
2022-11-28T03:29:41.640Z,87.80
2022-11-28T03:32:11.988Z,88.31
2022-11-28T03:34:44.631Z,87.47
2022-11-28T03:37:16.859Z,88.21
2022-11-28T03:39:49.055Z,88.97
2022-11-28T03:42:40.099Z,88.76
2022-11-28T03:45:13.830Z,89.43
2022-11-28T03:47:52.290Z,90.10
2022-11-28T03:50:25.772Z,90.05
2022-11-28T03:53:03.412Z,89.95
2022-11-28T03:55:43.648Z,89.93
2022-11-28T03:58:23.152Z,89.12
2022-11-28T04:01:02.342Z,88.94
2022-11-28T04:03:40.930Z,88.57
2022-11-28T04:06:24.456Z,88.53
2022-11-28T04:09:49.517Z,87.63
2022-11-28T04:12:21.274Z,86.69
2022-11-28T04:14:55.739Z,86.82
2022-11-28T04:17:42.542Z,86.77
2022-11-28T04:20:21.139Z,86.29
2022-11-28T04:22:54.186Z,86.42
2022-11-28T04:25:23.184Z,86.35
2022-11-28T04:28:07.097Z,85.77
2022-11-28T04:30:34.748Z,85.27
2022-11-28T04:33:07.077Z,84.61
2022-11-28T04:35:38.220Z,84.07
2022-11-28T04:38:07.458Z,84.05
2022-11-28T04:40:57.685Z,83.25
2022-11-28T04:43:29.958Z,83.54
2022-11-28T04:46:02.478Z,83.34
2022-11-28T04:48:34.131Z,82.90
2022-11-28T04:51:25.799Z,82.88
2022-11-28T04:54:15.899Z,82.45
2022-11-28T04:56:48.476Z,81.65
2022-11-28T04:59:15.820Z,81.38
2022-11-28T05:01:46.224Z,82.25
2022-11-28T05:04:14.685Z,82.37
2022-11-28T05:06:41.283Z,81.60
2022-11-28T05:09:10.078Z,82.47
2022-11-28T05:11:36.701Z,82.56
2022-11-28T05:14:03.370Z,83.03
2022-11-28T05:16:30.093Z,82.54
2022-11-28T05:18:56.777Z,81.96
2022-11-28T05:21:23.467Z,82.61
2022-11-28T05:23:50.092Z,82.65
2022-11-28T05:26:20.277Z,82.51
2022-11-28T05:28:50.068Z,82.08
2022-11-28T05:31:18.908Z,83.06
2022-11-28T05:33:45.997Z,82.69
2022-11-28T05:36:13.880Z,84.10
2022-11-28T05:38:41.461Z,84.02
2022-11-28T05:41:09.189Z,83.63
2022-11-28T05:43:35.865Z,83.26
2022-11-28T05:46:06.542Z,83.62
2022-11-28T05:48:33.225Z,84.29
2022-11-28T05:51:00.638Z,84.56
2022-11-28T05:53:27.277Z,84.70
2022-11-28T05:55:53.869Z,84.99
2022-11-28T05:58:20.477Z,84.71
2022-11-28T06:00:47.121Z,84.12
2022-11-28T06:03:13.739Z,84.56
2022-11-28T06:05:43.679Z,83.95
2022-11-28T06:08:12.075Z,85.10
2022-11-28T06:10:39.023Z,84.91
2022-11-28T06:13:05.767Z,85.30
2022-11-28T06:15:37.533Z,84.96
2022-11-28T06:18:05.283Z,85.03
2022-11-28T06:20:31.902Z,85.01
2022-11-28T06:22:58.600Z,85.01
2022-11-28T06:25:25.171Z,85.97
2022-11-28T06:27:51.811Z,85.26
2022-11-28T06:30:18.419Z,85.16
2022-11-28T06:32:45.057Z,84.96
2022-11-28T06:35:11.702Z,85.42
2022-11-28T06:37:38.338Z,86.10
2022-11-28T06:40:05.807Z,85.81
2022-11-28T06:42:32.457Z,85.24
2022-11-28T06:44:59.026Z,85.46
2022-11-28T06:47:25.681Z,85.37
2022-11-28T06:49:52.761Z,84.78
2022-11-28T06:52:19.345Z,85.05
2022-11-28T06:54:45.935Z,84.54
2022-11-28T06:57:12.684Z,84.47
2022-11-28T06:59:39.360Z,83.75
2022-11-28T07:02:07.925Z,84.26
2022-11-28T07:04:34.805Z,84.47
2022-11-28T07:07:01.637Z,84.15
2022-11-28T07:09:28.396Z,85.15
2022-11-28T07:11:55.179Z,84.48
2022-11-28T07:14:21.797Z,84.96
2022-11-28T07:16:49.256Z,84.86
2022-11-28T07:19:16.183Z,84.80
2022-11-28T07:21:42.847Z,85.37
2022-11-28T07:24:09.444Z,85.41
2022-11-28T07:26:38.073Z,85.65
2022-11-28T07:29:07.000Z,85.70
2022-11-28T07:31:33.849Z,86.30
2022-11-28T07:34:03.530Z,85.99
2022-11-28T07:36:30.832Z,85.65
2022-11-28T07:38:59.831Z,85.89
2022-11-28T07:41:27.401Z,85.67
2022-11-28T07:43:57.147Z,86.29
2022-11-28T07:46:24.917Z,86.30
2022-11-28T07:48:52.293Z,86.62
2022-11-28T07:51:21.703Z,85.63
2022-11-28T07:53:48.490Z,85.99
2022-11-28T07:56:18.691Z,85.97
2022-11-28T07:58:47.236Z,86.03
2022-11-28T08:01:19.124Z,86.32
2022-11-28T08:03:46.866Z,86.63
2022-11-28T08:06:16.631Z,87.63
2022-11-28T08:08:43.929Z,88.66
2022-11-28T08:11:10.885Z,89.04
2022-11-28T08:13:38.764Z,88.89
2022-11-28T08:16:08.157Z,88.72
2022-11-28T08:18:36.069Z,88.40
2022-11-28T08:21:05.050Z,88.22
2022-11-28T08:23:33.738Z,87.96
2022-11-28T08:26:03.808Z,87.37
2022-11-28T08:28:31.504Z,87.26
2022-11-28T08:31:01.382Z,87.66
2022-11-28T08:33:28.067Z,86.59
2022-11-28T08:35:54.670Z,86.11
2022-11-28T08:38:21.308Z,86.06
2022-11-28T08:40:47.890Z,85.58
2022-11-28T08:43:14.644Z,85.92
2022-11-28T08:45:41.474Z,85.54
2022-11-28T08:48:08.105Z,85.02
2022-11-28T08:50:34.686Z,85.14
2022-11-28T08:53:07.830Z,85.27
2022-11-28T08:55:39.162Z,85.67
2022-11-28T08:58:08.506Z,85.39
2022-11-28T09:00:35.411Z,85.79
2022-11-28T09:03:02.304Z,85.14
2022-11-28T09:05:29.895Z,86.53
2022-11-28T09:07:56.859Z,86.92
2022-11-28T09:10:25.052Z,86.48
2022-11-28T09:12:52.511Z,86.52
2022-11-28T09:15:19.205Z,87.16
2022-11-28T09:17:46.576Z,86.96
2022-11-28T09:20:13.651Z,87.82
2022-11-28T09:22:42.540Z,88.90
2022-11-28T09:25:09.337Z,89.32
2022-11-28T09:27:35.906Z,89.07
2022-11-28T09:30:02.589Z,90.00
2022-11-28T09:32:29.173Z,91.39
2022-11-28T09:34:55.777Z,91.50
2022-11-28T09:37:22.374Z,91.97
2022-11-28T09:40:11.668Z,91.22
2022-11-28T09:42:39.393Z,91.94
2022-11-28T09:45:11.960Z,91.27
2022-11-28T09:47:42.884Z,92.27
2022-11-28T09:50:16.786Z,90.96
2022-11-28T09:52:49.705Z,91.38
2022-11-28T09:55:28.225Z,91.46
2022-11-28T09:57:55.392Z,92.02
2022-11-28T10:00:55.361Z,91.83
2022-11-28T10:03:43.771Z,91.52
2022-11-28T10:06:19.196Z,91.37
2022-11-28T10:09:16.648Z,92.34
2022-11-28T10:12:04.850Z,92.51
2022-11-28T10:14:51.376Z,93.17
2022-11-28T10:17:50.462Z,93.77
2022-11-28T10:20:28.352Z,94.00
2022-11-28T10:23:18.062Z,95.34
2022-11-28T10:25:53.820Z,95.66
2022-11-28T10:28:26.557Z,96.72
2022-11-28T10:31:01.652Z,97.38
2022-11-28T10:33:52.064Z,97.50
2022-11-28T10:36:26.522Z,97.65
2022-11-28T10:38:53.478Z,97.27
2022-11-28T10:41:28.831Z,98.53
2022-11-28T10:44:00.738Z,97.45
2022-11-28T10:46:49.414Z,97.57
2022-11-28T10:49:37.154Z,98.83
2022-11-28T10:52:04.097Z,99.14
2022-11-28T10:54:49.649Z,98.61
2022-11-28T10:57:31.481Z,98.27
2022-11-28T11:00:14.525Z,99.20
2022-11-28T11:03:00.411Z,98.84
2022-11-28T11:05:32.960Z,99.78
2022-11-28T11:08:10.089Z,99.27
2022-11-28T11:10:41.359Z,100.00
2022-11-28T11:13:19.206Z,97.83
2022-11-28T11:15:49.195Z,99.40
2022-11-28T11:18:42.158Z,98.44
2022-11-28T11:21:15.358Z,99.04
2022-11-28T11:23:43.095Z,98.70
2022-11-28T11:26:25.011Z,98.58
2022-11-28T11:28:52.506Z,99.32
2022-11-28T11:31:24.128Z,100.00
2022-11-28T11:33:53.873Z,99.86
2022-11-28T11:36:25.487Z,99.75
2022-11-28T11:38:52.685Z,98.75
2022-11-28T11:41:28.016Z,98.88
2022-11-28T11:43:54.827Z,99.50
2022-11-28T11:46:21.538Z,99.35
2022-11-28T11:48:51.223Z,98.46
2022-11-28T11:51:35.230Z,100.00
2022-11-28T11:54:19.239Z,100.00
2022-11-28T11:56:53.557Z,100.00
2022-11-28T11:59:26.326Z,100.00
2022-11-28T12:01:57.615Z,100.00
2022-11-28T12:04:45.648Z,100.00
2022-11-28T12:07:28.124Z,100.00
2022-11-28T12:09:59.502Z,100.00
2022-11-28T12:12:33.710Z,99.43
2022-11-28T12:15:00.299Z,99.54
2022-11-28T12:17:50.706Z,99.07
2022-11-28T12:20:43.165Z,98.73
2022-11-28T12:23:40.667Z,97.91
2022-11-28T12:26:28.826Z,100.00
2022-11-28T12:29:53.436Z,99.62
2022-11-28T12:32:32.065Z,97.83
2022-11-28T12:35:15.969Z,97.67
2022-11-28T12:38:10.168Z,96.73
2022-11-28T12:41:14.537Z,95.60
2022-11-28T12:43:42.717Z,95.60
2022-11-28T12:46:38.029Z,95.25
2022-11-28T12:49:10.807Z,96.82
2022-11-28T12:51:55.358Z,97.89
2022-11-28T12:54:24.612Z,97.90
2022-11-28T12:57:07.653Z,98.05
2022-11-28T13:00:08.625Z,98.37
2022-11-28T13:02:42.689Z,99.53
2022-11-28T13:05:50.623Z,99.12
2022-11-28T13:08:47.887Z,99.46
2022-11-28T13:11:40.169Z,99.98
2022-11-28T13:14:15.613Z,100.00
2022-11-28T13:16:51.484Z,100.00
2022-11-28T13:19:38.091Z,100.00
2022-11-28T13:22:34.078Z,100.00
2022-11-28T13:25:29.468Z,99.86
2022-11-28T13:28:10.670Z,100.00
2022-11-28T13:30:47.984Z,99.72
2022-11-28T13:33:14.615Z,100.00
2022-11-28T13:35:44.016Z,99.96
2022-11-28T13:38:36.729Z,100.00
2022-11-28T13:41:35.820Z,100.00
2022-11-28T13:44:22.020Z,100.00
2022-11-28T13:46:48.768Z,100.00
2022-11-28T13:49:24.387Z,99.87
2022-11-28T13:52:18.708Z,100.00
2022-11-28T13:54:52.952Z,100.00
2022-11-28T13:57:26.937Z,100.00
2022-11-28T14:00:02.295Z,100.00
2022-11-28T14:02:51.222Z,100.00
2022-11-28T14:05:28.847Z,100.00
2022-11-28T14:07:56.899Z,100.00
2022-11-28T14:10:40.602Z,100.00
2022-11-28T14:13:24.088Z,100.00
2022-11-28T14:16:13.679Z,100.00
2022-11-28T14:18:57.260Z,100.00
2022-11-28T14:21:39.575Z,100.00
2022-11-28T14:24:27.291Z,100.00
2022-11-28T14:27:00.350Z,100.00
2022-11-28T14:29:49.824Z,100.00
2022-11-28T14:32:40.528Z,100.00
2022-11-28T14:35:17.658Z,100.00
2022-11-28T14:37:53.660Z,100.00
2022-11-28T14:40:51.278Z,100.00
2022-11-28T14:43:23.835Z,100.00
2022-11-28T14:45:52.164Z,100.00
2022-11-28T14:48:31.190Z,100.00
2022-11-28T14:51:01.932Z,100.00
2022-11-28T14:53:42.389Z,100.00
2022-11-28T14:56:15.786Z,100.00
2022-11-28T14:59:03.468Z,100.00
2022-11-28T15:01:41.040Z,100.00
2022-11-28T15:04:26.816Z,100.00
2022-11-28T15:06:54.977Z,100.00
2022-11-28T15:10:07.946Z,100.00
2022-11-28T15:12:54.838Z,100.00
2022-11-28T15:15:22.729Z,100.00
2022-11-28T15:17:53.136Z,100.00
2022-11-28T15:20:35.478Z,100.00
2022-11-28T15:23:02.304Z,100.00
2022-11-28T15:25:35.655Z,100.00
2022-11-28T15:28:16.699Z,100.00
2022-11-28T15:30:51.502Z,100.00
2022-11-28T15:33:19.721Z,100.00
2022-11-28T15:36:10.883Z,100.00
2022-11-28T15:38:41.347Z,100.00
2022-11-28T15:41:08.163Z,100.00
2022-11-28T15:43:37.593Z,100.00
2022-11-28T15:46:05.949Z,100.00
2022-11-28T15:48:39.423Z,100.00
2022-11-28T15:51:08.095Z,100.00
2022-11-28T15:53:40.492Z,100.00
2022-11-28T15:56:12.686Z,100.00
2022-11-28T15:58:39.705Z,100.00
2022-11-28T16:01:40.607Z,100.00
2022-11-28T16:04:13.441Z,100.00
2022-11-28T16:06:44.474Z,100.00
2022-11-28T16:09:19.979Z,100.00
2022-11-28T16:11:49.705Z,100.00
2022-11-28T16:14:25.556Z,100.00
2022-11-28T16:16:52.182Z,100.00
2022-11-28T16:19:26.621Z,100.00
2022-11-28T16:21:57.777Z,100.00
2022-11-28T16:24:31.138Z,100.00
2022-11-28T16:27:03.478Z,100.00
2022-11-28T16:29:35.988Z,100.00
2022-11-28T16:32:19.602Z,100.00
2022-11-28T16:34:49.484Z,100.00
2022-11-28T16:37:27.619Z,100.00
2022-11-28T16:40:13.282Z,100.00
2022-11-28T16:42:40.414Z,100.00
2022-11-28T16:45:10.299Z,100.00
2022-11-28T16:47:37.233Z,100.00
2022-11-28T16:50:15.360Z,100.00
2022-11-28T16:52:46.467Z,100.00
2022-11-28T16:55:39.574Z,100.00
2022-11-28T16:58:18.790Z,100.00
2022-11-28T17:00:51.753Z,100.00
2022-11-28T17:03:41.495Z,100.00
2022-11-28T17:06:21.107Z,100.00
2022-11-28T17:08:48.454Z,100.00
2022-11-28T17:11:18.141Z,100.00
2022-11-28T17:13:44.760Z,100.00
2022-11-28T17:16:17.188Z,100.00
2022-11-28T17:18:45.154Z,100.00
2022-11-28T17:21:12.857Z,100.00
2022-11-28T17:23:41.095Z,100.00
2022-11-28T17:26:08.671Z,100.00
2022-11-28T17:28:35.719Z,100.00
2022-11-28T17:31:02.518Z,100.00
2022-11-28T17:33:29.192Z,100.00
2022-11-28T17:35:57.861Z,100.00
2022-11-28T17:38:24.798Z,100.00
2022-11-28T17:40:51.376Z,100.00
2022-11-28T17:43:20.471Z,100.00
2022-11-28T17:45:50.623Z,100.00
2022-11-28T17:48:18.041Z,100.00
2022-11-28T17:50:48.185Z,100.00
2022-11-28T17:53:18.245Z,100.00
2022-11-28T17:55:46.999Z,100.00
2022-11-28T17:58:23.601Z,100.00
2022-11-28T18:00:51.766Z,100.00
2022-11-28T18:03:20.848Z,100.00
2022-11-28T18:05:49.497Z,100.00
2022-11-28T18:08:21.850Z,100.00
2022-11-28T18:10:49.192Z,100.00
2022-11-28T18:13:17.599Z,100.00
2022-11-28T18:15:47.128Z,100.00
2022-11-28T18:18:14.181Z,100.00
2022-11-28T18:20:41.251Z,100.00
2022-11-28T18:23:11.020Z,100.00
2022-11-28T18:25:42.732Z,100.00
2022-11-28T18:28:18.618Z,100.00
2022-11-28T18:30:47.471Z,100.00
2022-11-28T18:33:15.393Z,100.00
2022-11-28T18:35:42.686Z,100.00
2022-11-28T18:38:11.787Z,100.00
2022-11-28T18:40:39.095Z,100.00
2022-11-28T18:43:05.940Z,100.00
2022-11-28T18:45:33.279Z,100.00
2022-11-28T18:48:00.637Z,100.00
2022-11-28T18:50:28.217Z,100.00
2022-11-28T18:52:54.838Z,100.00
2022-11-28T18:55:21.521Z,100.00
2022-11-28T18:57:48.795Z,100.00
2022-11-28T19:00:16.108Z,100.00
2022-11-28T19:02:42.958Z,100.00
2022-11-28T19:05:10.210Z,100.00
2022-11-28T19:07:37.319Z,100.00
2022-11-28T19:10:04.308Z,100.00
2022-11-28T19:12:30.897Z,100.00
2022-11-28T19:15:02.039Z,100.00
2022-11-28T19:17:29.418Z,100.00
2022-11-28T19:19:56.215Z,100.00
2022-11-28T19:22:22.902Z,100.00
2022-11-28T19:24:49.539Z,100.00
2022-11-28T19:27:16.379Z,100.00
2022-11-28T19:29:43.285Z,100.00
2022-11-28T19:32:10.301Z,100.00
2022-11-28T19:34:37.008Z,100.00
2022-11-28T19:37:03.626Z,100.00
2022-11-28T19:39:30.414Z,100.00
2022-11-28T19:41:57.335Z,100.00
2022-11-28T19:44:24.749Z,100.00
2022-11-28T19:46:53.433Z,100.00
2022-11-28T19:49:23.070Z,100.00
2022-11-28T19:51:51.075Z,100.00
2022-11-28T19:54:21.989Z,100.00
2022-11-28T19:56:49.549Z,100.00
2022-11-28T19:59:16.837Z,100.00
2022-11-28T20:01:43.806Z,100.00
2022-11-28T20:04:10.974Z,100.00
2022-11-28T20:06:38.140Z,100.00
2022-11-28T20:09:08.858Z,100.00
2022-11-28T20:11:40.070Z,100.00
2022-11-28T20:14:12.348Z,100.00
2022-11-28T20:16:40.535Z,100.00
2022-11-28T20:19:10.235Z,100.00
2022-11-28T20:21:37.151Z,100.00
2022-11-28T20:24:07.404Z,100.00
2022-11-28T20:26:40.884Z,100.00
2022-11-28T20:29:11.837Z,100.00
2022-11-28T20:31:46.171Z,100.00
2022-11-28T20:34:17.084Z,100.00
2022-11-28T20:36:44.201Z,100.00
2022-11-28T20:39:12.064Z,100.00
2022-11-28T20:41:38.663Z,100.00
2022-11-28T20:44:05.497Z,100.00
2022-11-28T20:46:34.087Z,100.00
2022-11-28T20:49:04.215Z,100.00
2022-11-28T20:51:34.164Z,100.00
2022-11-28T20:54:02.633Z,100.00
2022-11-28T20:56:31.885Z,100.00
2022-11-28T20:59:00.702Z,100.00
2022-11-28T21:01:30.754Z,100.00
2022-11-28T21:03:57.449Z,100.00
2022-11-28T21:06:24.303Z,100.00
2022-11-28T21:08:51.255Z,100.00
2022-11-28T21:11:43.373Z,100.00
2022-11-28T21:14:07.557Z,100.00
2022-11-28T21:16:34.747Z,100.00
2022-11-28T21:19:05.028Z,100.00
2022-11-28T21:21:34.045Z,100.00
2022-11-28T21:24:03.329Z,100.00
2022-11-28T21:26:39.203Z,100.00
2022-11-28T21:29:09.214Z,100.00
2022-11-28T21:31:40.070Z,100.00
2022-11-28T21:34:06.739Z,100.00
2022-11-28T21:36:33.655Z,100.00
2022-11-28T21:39:01.271Z,100.00
2022-11-28T21:41:31.165Z,100.00
2022-11-28T21:43:58.641Z,100.00
2022-11-28T21:46:26.240Z,100.00
2022-11-28T21:48:53.646Z,100.00
2022-11-28T21:51:22.883Z,100.00
2022-11-28T21:53:49.831Z,100.00
2022-11-28T21:56:17.302Z,100.00
2022-11-28T21:58:44.277Z,100.00
2022-11-28T22:01:13.501Z,100.00
2022-11-28T22:03:41.730Z,100.00
2022-11-28T22:06:12.263Z,100.00
2022-11-28T22:08:38.835Z,100.00
2022-11-28T22:11:08.571Z,100.00
2022-11-28T22:13:35.845Z,100.00
2022-11-28T22:16:10.611Z,100.00
2022-11-28T22:18:37.567Z,100.00
2022-11-28T22:21:28.678Z,100.00
2022-11-28T22:23:53.480Z,100.00
2022-11-28T22:26:20.147Z,100.00
2022-11-28T22:28:53.161Z,100.00
2022-11-28T22:31:20.561Z,100.00
2022-11-28T22:33:49.125Z,100.00
2022-11-28T22:36:18.133Z,100.00
2022-11-28T22:38:46.079Z,100.00
2022-11-28T22:41:28.405Z,100.00
2022-11-28T22:43:59.590Z,100.00
2022-11-28T22:46:27.852Z,100.00
2022-11-28T22:48:54.721Z,100.00
2022-11-28T22:51:23.988Z,100.00
2022-11-28T22:53:55.647Z,100.00
2022-11-28T22:56:24.825Z,100.00
2022-11-28T22:58:51.830Z,100.00
2022-11-28T23:01:22.349Z,100.00
2022-11-28T23:03:49.004Z,100.00
2022-11-28T23:06:24.929Z,100.00
2022-11-28T23:08:55.752Z,100.00
2022-11-28T23:11:26.610Z,100.00
2022-11-28T23:13:53.619Z,100.00
2022-11-28T23:16:26.200Z,100.00
2022-11-28T23:18:56.862Z,100.00
2022-11-28T23:21:25.851Z,100.00
2022-11-28T23:23:53.585Z,100.00
2022-11-28T23:26:28.533Z,100.00
2022-11-28T23:28:55.666Z,100.00
2022-11-28T23:31:25.947Z,100.00
2022-11-28T23:33:54.126Z,100.00
2022-11-28T23:36:26.277Z,100.00
2022-11-28T23:38:56.174Z,100.00
2022-11-28T23:41:23.657Z,100.00
2022-11-28T23:43:50.738Z,100.00
2022-11-28T23:46:18.904Z,100.00
2022-11-28T23:48:46.714Z,100.00
2022-11-28T23:51:14.904Z,100.00
2022-11-28T23:53:42.737Z,100.00
2022-11-28T23:56:14.917Z,100.00
2022-11-28T23:58:42.276Z,100.00
